createdAt,value
2022-12-29T00:00:15.874Z,59.00
2022-12-29T00:01:15.771Z,55.81
2022-12-29T00:02:15.945Z,54.19
2022-12-29T00:03:15.858Z,57.49
2022-12-29T00:04:15.922Z,64.66
2022-12-29T00:05:15.740Z,57.96
2022-12-29T00:06:15.742Z,52.03
2022-12-29T00:07:15.714Z,49.66
2022-12-29T00:08:15.694Z,52.71
2022-12-29T00:09:15.696Z,54.21
2022-12-29T00:10:15.707Z,47.84
2022-12-29T00:11:15.691Z,57.11
2022-12-29T00:12:15.712Z,56.17
2022-12-29T00:13:15.694Z,58.80
2022-12-29T00:14:47.616Z,50.69
2022-12-29T00:15:15.674Z,57.50
2022-12-29T00:16:15.701Z,54.07
2022-12-29T00:17:15.676Z,49.08
2022-12-29T00:18:15.637Z,55.41
2022-12-29T00:19:15.629Z,52.83
2022-12-29T00:20:15.609Z,52.75
2022-12-29T00:21:15.608Z,53.39
2022-12-29T00:22:15.590Z,51.47
2022-12-29T00:23:15.635Z,46.56
2022-12-29T00:24:15.620Z,49.93
2022-12-29T00:25:15.639Z,47.93
2022-12-29T00:26:15.582Z,53.28
2022-12-29T00:27:15.593Z,55.32
2022-12-29T00:28:15.566Z,53.69
2022-12-29T00:29:15.555Z,55.98
2022-12-29T00:30:15.557Z,60.12
2022-12-29T00:31:15.561Z,52.36
2022-12-29T00:32:15.519Z,48.80
2022-12-29T00:33:15.537Z,50.33
2022-12-29T00:34:15.542Z,53.20
2022-12-29T00:35:15.587Z,57.23
2022-12-29T00:36:15.524Z,53.33
2022-12-29T00:37:15.497Z,50.55
2022-12-29T00:38:15.482Z,52.97
2022-12-29T00:39:15.533Z,56.72
2022-12-29T00:40:15.484Z,51.24
2022-12-29T00:41:15.470Z,56.67
2022-12-29T00:42:15.449Z,54.91
2022-12-29T00:43:15.445Z,52.29
2022-12-29T00:44:15.543Z,48.49
2022-12-29T00:45:15.497Z,55.42
2022-12-29T00:46:19.696Z,56.98
2022-12-29T00:47:16.463Z,50.06
2022-12-29T00:48:15.450Z,48.53
2022-12-29T00:49:15.437Z,51.08
2022-12-29T00:50:15.479Z,55.72
2022-12-29T00:51:15.388Z,57.45
2022-12-29T00:52:15.527Z,57.84
2022-12-29T00:53:15.363Z,57.10
2022-12-29T00:54:15.372Z,58.43
2022-12-29T00:55:15.349Z,60.77
2022-12-29T00:56:15.362Z,57.30
2022-12-29T00:57:15.393Z,53.52
2022-12-29T00:58:15.341Z,60.44
2022-12-29T00:59:15.323Z,56.71
2022-12-29T01:00:15.321Z,63.58
2022-12-29T01:01:15.387Z,55.76
2022-12-29T01:02:15.497Z,54.55
2022-12-29T01:03:15.380Z,58.83
2022-12-29T01:04:15.277Z,59.05
2022-12-29T01:05:15.308Z,50.65
2022-12-29T01:06:15.260Z,57.31
2022-12-29T01:07:15.287Z,57.81
2022-12-29T01:08:15.290Z,54.00
2022-12-29T01:09:15.267Z,57.73
2022-12-29T01:10:15.412Z,56.23
2022-12-29T01:11:15.940Z,58.46
2022-12-29T01:12:15.217Z,53.65
2022-12-29T01:13:15.201Z,60.80
2022-12-29T01:14:15.358Z,62.34
2022-12-29T01:15:15.250Z,52.14
2022-12-29T01:16:15.257Z,53.63
2022-12-29T01:17:15.265Z,49.24
2022-12-29T01:18:15.171Z,54.56
2022-12-29T01:19:15.189Z,47.06
2022-12-29T01:20:15.172Z,53.07
2022-12-29T01:21:15.121Z,51.14
2022-12-29T01:22:16.162Z,55.34
2022-12-29T01:23:15.170Z,49.84
2022-12-29T01:24:15.133Z,55.59
2022-12-29T01:25:15.139Z,51.66
2022-12-29T01:26:15.165Z,54.10
2022-12-29T01:27:15.192Z,55.81
2022-12-29T01:28:15.096Z,57.30
2022-12-29T01:29:16.266Z,55.31
2022-12-29T01:30:15.100Z,55.30
2022-12-29T01:31:15.089Z,50.94
2022-12-29T01:32:15.077Z,54.29
2022-12-29T01:33:15.091Z,61.38
2022-12-29T01:34:15.081Z,61.62
2022-12-29T01:35:15.083Z,56.84
2022-12-29T01:36:15.062Z,53.68
2022-12-29T01:37:15.113Z,55.42
2022-12-29T01:38:15.015Z,54.72
2022-12-29T01:39:15.009Z,57.25
2022-12-29T01:40:15.024Z,56.98
2022-12-29T01:41:15.009Z,56.47
2022-12-29T01:42:14.999Z,48.69
2022-12-29T01:43:15.003Z,52.61
2022-12-29T01:44:14.994Z,54.82
2022-12-29T01:45:14.988Z,57.55
2022-12-29T01:46:14.990Z,46.95
2022-12-29T01:47:14.939Z,55.68
2022-12-29T01:48:14.947Z,61.55
2022-12-29T01:49:14.949Z,48.11
2022-12-29T01:50:14.952Z,53.56
2022-12-29T01:51:14.919Z,55.76
2022-12-29T01:52:14.924Z,51.89
2022-12-29T01:53:14.929Z,53.47
2022-12-29T01:54:15.013Z,59.98
2022-12-29T01:55:14.882Z,55.10
2022-12-29T01:56:14.884Z,52.32
2022-12-29T01:57:14.880Z,60.21
2022-12-29T01:58:14.853Z,55.91
2022-12-29T01:59:14.859Z,54.96
2022-12-29T02:00:14.875Z,57.05
2022-12-29T02:01:14.882Z,54.95
2022-12-29T02:02:14.926Z,49.86
2022-12-29T02:03:15.619Z,56.73
2022-12-29T02:04:14.900Z,51.92
2022-12-29T02:05:15.639Z,51.17
2022-12-29T02:06:14.837Z,48.15
2022-12-29T02:07:14.831Z,57.02
2022-12-29T02:08:14.785Z,57.97
2022-12-29T02:09:46.718Z,50.40
2022-12-29T02:10:14.797Z,50.20
2022-12-29T02:11:14.762Z,53.28
2022-12-29T02:12:14.781Z,49.67
2022-12-29T02:13:14.806Z,54.39
2022-12-29T02:14:14.785Z,51.51
2022-12-29T02:15:14.738Z,56.32
2022-12-29T02:16:14.827Z,50.88
2022-12-29T02:17:14.750Z,52.92
2022-12-29T02:18:14.735Z,54.49
2022-12-29T02:19:14.709Z,53.69
2022-12-29T02:20:14.702Z,52.71
2022-12-29T02:21:14.706Z,51.66
2022-12-29T02:22:14.685Z,60.96
2022-12-29T02:23:14.694Z,57.40
2022-12-29T02:24:14.666Z,58.68
2022-12-29T02:25:14.677Z,55.79
2022-12-29T02:26:14.648Z,55.54
2022-12-29T02:27:14.678Z,50.98
2022-12-29T02:28:14.647Z,56.29
2022-12-29T02:29:14.629Z,55.68
2022-12-29T02:30:14.631Z,58.29
2022-12-29T02:31:14.663Z,60.10
2022-12-29T02:32:14.655Z,59.18
2022-12-29T02:33:14.607Z,53.49
2022-12-29T02:34:14.595Z,56.60
2022-12-29T02:35:14.582Z,58.01
2022-12-29T02:36:14.575Z,54.40
2022-12-29T02:37:14.584Z,52.99
2022-12-29T02:38:14.589Z,57.03
2022-12-29T02:39:14.554Z,59.30
2022-12-29T02:40:14.564Z,53.36
2022-12-29T02:41:14.577Z,59.08
2022-12-29T02:42:14.552Z,58.51
2022-12-29T02:43:15.408Z,61.20
2022-12-29T02:44:14.538Z,51.13
2022-12-29T02:45:14.511Z,48.57
2022-12-29T02:46:14.535Z,53.34
2022-12-29T02:47:14.576Z,55.15
2022-12-29T02:48:14.556Z,54.37
2022-12-29T02:49:14.493Z,48.72
2022-12-29T02:50:14.469Z,51.58
2022-12-29T02:51:14.466Z,54.08
2022-12-29T02:52:14.464Z,53.59
2022-12-29T02:53:14.443Z,54.05
2022-12-29T02:54:14.427Z,55.38
2022-12-29T02:55:14.452Z,57.24
2022-12-29T02:56:14.481Z,54.39
2022-12-29T02:57:14.437Z,53.21
2022-12-29T02:58:14.405Z,58.10
2022-12-29T02:59:14.403Z,53.78
2022-12-29T03:00:14.424Z,55.24
2022-12-29T03:01:14.479Z,55.50
2022-12-29T03:02:14.443Z,49.83
2022-12-29T03:03:14.476Z,55.64
2022-12-29T03:04:14.371Z,51.58
2022-12-29T03:05:14.389Z,50.42
2022-12-29T03:06:14.366Z,54.11
2022-12-29T03:07:14.332Z,55.21
2022-12-29T03:08:14.320Z,61.12
2022-12-29T03:09:18.829Z,53.66
2022-12-29T03:10:15.336Z,49.46
2022-12-29T03:11:14.317Z,55.43
2022-12-29T03:12:14.305Z,52.45
2022-12-29T03:13:14.279Z,50.98
2022-12-29T03:14:14.303Z,54.32
2022-12-29T03:15:14.307Z,50.68
2022-12-29T03:16:14.343Z,57.17
2022-12-29T03:17:14.445Z,56.57
2022-12-29T03:18:14.242Z,53.77
2022-12-29T03:19:14.347Z,49.78
2022-12-29T03:20:14.251Z,55.91
2022-12-29T03:21:14.244Z,52.46
2022-12-29T03:22:14.250Z,53.19
2022-12-29T03:23:14.234Z,56.23
2022-12-29T03:24:14.261Z,59.33
2022-12-29T03:25:14.206Z,60.55
2022-12-29T03:26:14.214Z,53.59
2022-12-29T03:27:14.217Z,53.92
2022-12-29T03:28:14.190Z,49.42
2022-12-29T03:29:14.182Z,55.17
2022-12-29T03:30:14.194Z,58.18
2022-12-29T03:31:14.221Z,50.96
2022-12-29T03:32:14.194Z,57.28
2022-12-29T03:33:14.223Z,60.65
2022-12-29T03:34:14.229Z,57.10
2022-12-29T03:35:14.146Z,55.25
2022-12-29T03:36:14.119Z,51.27
2022-12-29T03:37:14.132Z,52.07
2022-12-29T03:38:14.107Z,54.31
2022-12-29T03:39:14.094Z,61.37
2022-12-29T03:40:14.167Z,54.79
2022-12-29T03:41:14.086Z,54.96
2022-12-29T03:42:14.068Z,58.31
2022-12-29T03:43:14.205Z,54.52
2022-12-29T03:44:14.064Z,56.83
2022-12-29T03:45:14.063Z,58.58
2022-12-29T03:46:14.112Z,53.12
2022-12-29T03:47:14.031Z,58.57
2022-12-29T04:03:44.096Z,58.82
2022-12-29T04:04:44.062Z,59.74
2022-12-29T04:05:44.066Z,56.26
2022-12-29T04:06:44.016Z,60.87
2022-12-29T04:07:45.141Z,59.57
2022-12-29T04:08:45.172Z,58.36
2022-12-29T04:09:46.172Z,55.25
2022-12-29T04:10:45.181Z,61.60
2022-12-29T04:11:45.145Z,59.09
2022-12-29T04:12:45.116Z,59.48
2022-12-29T04:13:45.119Z,63.06
2022-12-29T04:14:45.146Z,54.28
2022-12-29T04:15:45.150Z,53.21
2022-12-29T04:16:45.098Z,60.57
2022-12-29T04:17:45.104Z,61.53
2022-12-29T04:18:45.055Z,60.32
2022-12-29T04:19:45.062Z,62.35
2022-12-29T04:20:45.068Z,58.74
2022-12-29T04:21:45.048Z,58.95
2022-12-29T04:22:45.055Z,53.73
2022-12-29T04:23:45.028Z,59.41
2022-12-29T04:24:45.021Z,53.67
2022-12-29T04:25:45.029Z,56.61
2022-12-29T04:26:45.027Z,57.91
2022-12-29T04:27:45.010Z,63.33
2022-12-29T04:28:44.989Z,56.70
2022-12-29T04:29:45.002Z,60.87
2022-12-29T04:30:44.980Z,64.55
2022-12-29T04:31:45.121Z,62.06
2022-12-29T04:32:44.966Z,64.77
2022-12-29T04:33:44.976Z,59.08
2022-12-29T04:34:44.952Z,61.07
2022-12-29T04:35:44.926Z,65.70
2022-12-29T04:36:44.953Z,53.80
2022-12-29T04:37:44.921Z,60.80
2022-12-29T04:38:44.931Z,55.38
2022-12-29T04:39:44.910Z,68.29
2022-12-29T04:40:44.909Z,66.57
2022-12-29T04:41:44.889Z,57.42
2022-12-29T04:42:44.904Z,58.94
2022-12-29T04:43:44.896Z,60.58
2022-12-29T04:44:45.333Z,65.19
2022-12-29T04:45:45.887Z,63.42
2022-12-29T04:46:44.889Z,60.64
2022-12-29T04:47:44.892Z,61.41
2022-12-29T04:48:44.852Z,56.84
2022-12-29T04:49:44.841Z,52.03
2022-12-29T04:50:44.827Z,54.96
2022-12-29T04:51:44.842Z,64.59
2022-12-29T04:52:44.823Z,57.95
2022-12-29T04:53:44.847Z,56.90
2022-12-29T04:54:44.822Z,55.50
2022-12-29T04:55:44.774Z,59.37
2022-12-29T04:56:44.819Z,62.27
2022-12-29T04:57:44.773Z,56.58
2022-12-29T04:58:44.759Z,62.92
2022-12-29T04:59:44.784Z,56.75
2022-12-29T05:00:44.733Z,60.17
2022-12-29T05:01:44.870Z,59.55
2022-12-29T05:02:44.867Z,64.80
2022-12-29T05:03:44.794Z,57.18
2022-12-29T05:04:44.720Z,58.56
2022-12-29T05:05:44.724Z,59.54
2022-12-29T05:06:44.713Z,55.69
2022-12-29T05:07:44.745Z,61.19
2022-12-29T05:08:44.703Z,58.89
2022-12-29T05:09:44.672Z,60.01
2022-12-29T05:10:44.696Z,61.85
2022-12-29T05:11:44.661Z,58.12
2022-12-29T05:12:44.640Z,49.73
2022-12-29T05:13:44.646Z,61.48
2022-12-29T05:14:44.628Z,58.51
2022-12-29T05:15:44.689Z,53.44
2022-12-29T05:16:44.622Z,60.13
2022-12-29T05:17:44.642Z,62.26
2022-12-29T05:18:44.597Z,54.90
2022-12-29T05:19:44.600Z,57.70
2022-12-29T05:20:44.621Z,59.59
2022-12-29T05:21:44.578Z,52.95
2022-12-29T05:22:44.648Z,51.66
2022-12-29T05:23:44.575Z,63.46
2022-12-29T05:24:44.553Z,64.62
2022-12-29T05:25:44.537Z,60.29
2022-12-29T05:26:44.546Z,59.79
2022-12-29T05:27:44.556Z,60.29
2022-12-29T05:28:44.560Z,57.40
2022-12-29T05:29:44.543Z,57.36
2022-12-29T05:30:44.549Z,57.63
2022-12-29T05:31:44.580Z,59.25
2022-12-29T05:32:44.517Z,61.39
2022-12-29T05:33:44.475Z,62.25
2022-12-29T05:34:44.474Z,61.18
2022-12-29T05:35:44.512Z,61.65
2022-12-29T05:36:44.494Z,60.88
2022-12-29T05:37:44.478Z,66.61
2022-12-29T05:38:44.434Z,59.66
2022-12-29T05:39:44.432Z,61.71
2022-12-29T05:40:44.452Z,61.11
2022-12-29T05:41:44.429Z,66.01
2022-12-29T05:42:44.460Z,65.80
2022-12-29T05:43:44.461Z,61.66
2022-12-29T05:44:44.469Z,67.57
2022-12-29T05:45:44.442Z,60.15
2022-12-29T05:46:44.437Z,57.32
2022-12-29T05:47:44.375Z,55.92
2022-12-29T05:48:44.411Z,59.06
2022-12-29T05:49:44.384Z,65.08
2022-12-29T05:50:44.351Z,60.84
2022-12-29T05:51:44.336Z,62.30
2022-12-29T05:52:44.343Z,63.03
2022-12-29T05:53:44.357Z,58.42
2022-12-29T05:54:44.319Z,59.16
2022-12-29T05:55:48.496Z,62.29
2022-12-29T05:56:45.304Z,64.59
2022-12-29T05:57:44.300Z,65.92
2022-12-29T05:58:44.300Z,62.64
2022-12-29T05:59:44.301Z,62.70
2022-12-29T06:00:44.276Z,57.13
2022-12-29T06:01:44.338Z,54.62
2022-12-29T06:02:44.497Z,59.61
2022-12-29T06:03:48.159Z,50.08
2022-12-29T06:04:45.249Z,56.46
2022-12-29T06:05:44.232Z,56.90
2022-12-29T06:06:44.216Z,53.76
2022-12-29T06:07:44.223Z,61.48
2022-12-29T06:08:44.217Z,63.94
2022-12-29T06:09:44.187Z,56.07
2022-12-29T06:10:44.217Z,63.30
2022-12-29T06:11:44.181Z,59.60
2022-12-29T06:12:44.188Z,56.82
2022-12-29T06:13:44.154Z,65.58
2022-12-29T06:14:44.173Z,61.62
2022-12-29T06:15:44.160Z,65.93
2022-12-29T06:16:44.216Z,64.25
2022-12-29T06:17:44.128Z,61.47
2022-12-29T06:18:44.121Z,58.52
2022-12-29T06:19:44.113Z,64.38
2022-12-29T06:20:44.122Z,61.79
2022-12-29T06:21:44.091Z,57.67
2022-12-29T06:22:44.095Z,64.74
2022-12-29T06:23:44.082Z,61.51
2022-12-29T06:24:44.070Z,58.30
2022-12-29T06:25:44.103Z,56.46
2022-12-29T06:26:44.093Z,61.01
2022-12-29T06:27:44.054Z,64.10
2022-12-29T06:28:44.075Z,60.58
2022-12-29T06:29:44.044Z,64.86
2022-12-29T06:30:44.038Z,62.33
2022-12-29T06:31:44.134Z,64.78
2022-12-29T06:32:44.006Z,64.96
2022-12-29T06:33:48.250Z,67.64
2022-12-29T06:34:44.996Z,61.58
2022-12-29T06:35:43.991Z,64.23
2022-12-29T06:36:44.039Z,63.10
2022-12-29T06:37:44.038Z,59.93
2022-12-29T06:38:43.977Z,57.44
2022-12-29T06:39:43.957Z,66.74
2022-12-29T06:40:43.951Z,60.09
2022-12-29T06:41:43.951Z,63.58
2022-12-29T06:42:43.925Z,60.28
2022-12-29T06:43:43.923Z,64.03
2022-12-29T06:44:43.916Z,63.58
2022-12-29T06:45:43.928Z,54.53
2022-12-29T06:46:43.907Z,67.87
2022-12-29T06:47:43.896Z,69.92
2022-12-29T06:48:43.874Z,60.94
2022-12-29T06:49:43.903Z,56.05
2022-12-29T06:50:43.839Z,63.25
2022-12-29T06:51:43.888Z,65.00
2022-12-29T06:52:43.861Z,65.11
2022-12-29T06:53:43.846Z,64.55
2022-12-29T06:54:43.837Z,61.24
2022-12-29T06:55:43.850Z,64.95
2022-12-29T06:56:43.852Z,64.31
2022-12-29T06:57:43.827Z,62.51
2022-12-29T06:58:43.794Z,67.75
2022-12-29T06:59:43.793Z,67.35
2022-12-29T07:00:43.786Z,59.25
2022-12-29T07:01:43.908Z,62.48
2022-12-29T07:02:43.893Z,60.15
2022-12-29T07:03:43.765Z,65.03
2022-12-29T07:04:43.809Z,60.03
2022-12-29T07:05:43.758Z,65.17
2022-12-29T07:06:43.743Z,65.83
2022-12-29T07:07:44.306Z,62.10
2022-12-29T07:08:43.758Z,59.49
2022-12-29T07:09:43.719Z,60.49
2022-12-29T07:10:43.720Z,66.71
2022-12-29T07:11:43.704Z,65.64
2022-12-29T07:12:43.703Z,62.34
2022-12-29T07:13:43.704Z,63.93
2022-12-29T07:14:43.859Z,65.20
2022-12-29T07:15:43.726Z,59.90
2022-12-29T07:16:43.713Z,61.75
2022-12-29T07:17:43.655Z,62.79
2022-12-29T07:18:43.685Z,59.99
2022-12-29T07:19:43.706Z,64.30
2022-12-29T07:20:43.640Z,62.57
2022-12-29T07:21:46.325Z,66.96
2022-12-29T07:22:43.616Z,60.95
2022-12-29T07:23:43.627Z,56.89
2022-12-29T07:24:43.622Z,65.40
2022-12-29T07:25:43.599Z,52.62
2022-12-29T07:26:43.605Z,62.98
2022-12-29T07:27:43.576Z,65.70
2022-12-29T07:28:43.585Z,65.57
2022-12-29T07:29:43.585Z,60.89
2022-12-29T07:30:43.576Z,71.17
2022-12-29T07:31:43.562Z,67.28
2022-12-29T07:32:44.530Z,66.93
2022-12-29T07:33:43.558Z,65.39
2022-12-29T07:34:43.591Z,68.33
2022-12-29T07:35:43.530Z,65.89
2022-12-29T07:36:43.530Z,65.00
2022-12-29T07:37:43.509Z,53.58
2022-12-29T07:38:43.556Z,66.68
2022-12-29T07:39:43.512Z,64.64
2022-12-29T07:40:43.493Z,66.29
2022-12-29T07:41:43.476Z,63.46
2022-12-29T07:42:43.483Z,62.50
2022-12-29T07:43:43.459Z,53.00
2022-12-29T07:44:43.452Z,64.29
2022-12-29T07:45:43.514Z,64.84
2022-12-29T07:46:54.968Z,68.99
2022-12-29T07:47:44.433Z,66.53
2022-12-29T07:48:43.421Z,64.51
2022-12-29T07:49:43.409Z,65.23
2022-12-29T07:50:43.456Z,64.20
2022-12-29T07:51:43.447Z,64.93
2022-12-29T07:52:43.394Z,61.09
2022-12-29T07:53:43.395Z,62.58
2022-12-29T07:54:43.379Z,60.78
2022-12-29T07:55:43.357Z,66.67
2022-12-29T07:56:43.419Z,65.52
2022-12-29T07:57:43.385Z,63.89
2022-12-29T07:58:43.346Z,66.56
2022-12-29T07:59:43.325Z,61.50
2022-12-29T08:00:43.322Z,66.53
2022-12-29T08:01:43.447Z,62.03
2022-12-29T08:02:43.424Z,61.33
2022-12-29T08:03:43.345Z,60.34
2022-12-29T08:04:43.291Z,66.72
2022-12-29T08:05:44.340Z,68.06
2022-12-29T08:06:43.279Z,67.98
2022-12-29T08:07:43.281Z,66.28
2022-12-29T08:08:43.293Z,60.29
2022-12-29T08:12:01.865Z,65.97
2022-12-29T08:13:01.849Z,63.70
2022-12-29T08:14:02.978Z,64.50
2022-12-29T08:15:02.944Z,65.09
2022-12-29T08:16:04.622Z,63.54
2022-12-29T08:17:02.988Z,70.22
2022-12-29T08:18:02.930Z,66.90
2022-12-29T08:19:02.939Z,69.49
2022-12-29T08:20:02.950Z,64.74
2022-12-29T08:21:02.909Z,65.81
2022-12-29T08:22:02.921Z,66.40
2022-12-29T08:23:02.940Z,66.67
2022-12-29T08:24:02.896Z,62.17
2022-12-29T08:25:02.881Z,70.06
2022-12-29T08:26:02.868Z,65.72
2022-12-29T08:27:11.838Z,63.90
2022-12-29T08:28:04.859Z,69.19
2022-12-29T08:29:02.844Z,60.76
2022-12-29T08:30:03.023Z,68.41
2022-12-29T08:31:02.852Z,66.47
2022-12-29T08:32:02.937Z,59.72
2022-12-29T08:33:02.819Z,65.12
2022-12-29T08:34:02.829Z,68.96
2022-12-29T08:35:02.847Z,64.34
2022-12-29T08:36:02.771Z,65.33
2022-12-29T08:37:02.817Z,65.34
2022-12-29T08:38:02.780Z,68.89
2022-12-29T08:39:02.781Z,67.12
2022-12-29T08:40:02.770Z,67.11
2022-12-29T08:41:02.738Z,70.44
2022-12-29T08:42:02.758Z,61.72
2022-12-29T08:43:02.721Z,65.15
2022-12-29T08:44:02.749Z,67.06
2022-12-29T08:45:02.801Z,66.54
2022-12-29T08:46:02.793Z,66.69
2022-12-29T08:47:02.747Z,58.68
2022-12-29T08:48:02.698Z,63.25
2022-12-29T08:49:03.470Z,64.12
2022-12-29T08:50:02.696Z,63.73
2022-12-29T08:51:02.708Z,63.67
2022-12-29T08:52:02.653Z,64.18
2022-12-29T08:53:02.661Z,67.27
2022-12-29T08:54:02.652Z,62.97
2022-12-29T08:55:02.620Z,69.23
2022-12-29T08:56:05.422Z,65.86
2022-12-29T08:57:03.669Z,64.77
2022-12-29T08:58:02.641Z,69.52
2022-12-29T08:59:02.608Z,69.41
2022-12-29T09:00:02.589Z,62.61
2022-12-29T09:01:02.635Z,62.56
2022-12-29T09:02:02.909Z,65.95
2022-12-29T09:03:02.780Z,62.94
2022-12-29T09:04:18.603Z,70.35
2022-12-29T09:05:04.577Z,64.24
2022-12-29T09:06:02.582Z,65.85
2022-12-29T09:07:02.531Z,65.08
2022-12-29T09:08:02.575Z,63.66
2022-12-29T09:09:02.522Z,67.15
2022-12-29T09:10:02.519Z,60.58
2022-12-29T09:11:02.522Z,65.24
2022-12-29T09:12:02.508Z,67.27
2022-12-29T09:13:02.497Z,59.42
2022-12-29T09:14:02.516Z,67.42
2022-12-29T09:15:02.471Z,63.62
2022-12-29T09:16:02.491Z,64.43
2022-12-29T09:17:02.466Z,64.86
2022-12-29T09:18:02.471Z,67.96
2022-12-29T09:19:02.449Z,64.18
2022-12-29T09:20:02.448Z,66.81
2022-12-29T09:21:02.451Z,66.06
2022-12-29T09:22:02.481Z,68.09
2022-12-29T09:23:02.437Z,66.97
2022-12-29T09:24:02.407Z,64.37
2022-12-29T09:25:02.384Z,63.09
2022-12-29T09:26:02.415Z,66.22
2022-12-29T09:27:02.419Z,69.51
2022-12-29T09:28:02.364Z,68.24
2022-12-29T09:29:02.355Z,68.68
2022-12-29T09:30:02.353Z,67.92
2022-12-29T09:31:02.464Z,68.09
2022-12-29T09:32:02.336Z,66.54
2022-12-29T09:33:02.347Z,68.41
2022-12-29T09:34:02.339Z,73.48
2022-12-29T09:35:02.325Z,69.73
2022-12-29T09:36:02.312Z,68.99
2022-12-29T09:37:02.302Z,72.87
2022-12-29T09:38:02.298Z,67.61
2022-12-29T09:39:02.312Z,65.83
2022-12-29T09:40:02.264Z,68.35
2022-12-29T09:41:02.308Z,68.96
2022-12-29T09:42:02.250Z,68.63
2022-12-29T09:43:02.250Z,67.24
2022-12-29T09:44:02.271Z,69.42
2022-12-29T09:45:02.231Z,64.78
2022-12-29T09:46:02.239Z,72.15
2022-12-29T09:47:02.293Z,70.27
2022-12-29T09:48:08.149Z,67.90
2022-12-29T09:49:04.234Z,73.01
2022-12-29T09:50:02.217Z,67.45
2022-12-29T09:51:02.222Z,65.45
2022-12-29T09:52:02.179Z,70.37
2022-12-29T09:53:02.233Z,69.26
2022-12-29T09:54:02.181Z,68.04
2022-12-29T09:55:06.328Z,65.81
2022-12-29T09:56:04.200Z,63.43
2022-12-29T09:57:02.164Z,64.57
2022-12-29T09:58:02.144Z,66.47
2022-12-29T09:59:02.148Z,67.65
2022-12-29T10:00:02.251Z,68.65
2022-12-29T10:01:02.171Z,65.00
2022-12-29T10:02:02.255Z,66.64
2022-12-29T10:03:02.275Z,65.15
2022-12-29T10:04:02.094Z,69.55
2022-12-29T10:05:02.154Z,69.26
2022-12-29T10:06:02.115Z,66.52
2022-12-29T10:07:29.053Z,66.32
2022-12-29T10:08:04.106Z,67.72
2022-12-29T10:09:02.065Z,66.78
2022-12-29T10:10:02.129Z,67.51
2022-12-29T10:11:02.080Z,69.59
2022-12-29T10:12:02.046Z,69.23
2022-12-29T10:13:02.025Z,66.08
2022-12-29T10:14:02.015Z,59.30
2022-12-29T10:15:02.031Z,69.69
2022-12-29T10:16:02.070Z,69.03
2022-12-29T10:17:02.028Z,67.73
2022-12-29T10:18:01.996Z,65.93
2022-12-29T10:19:02.028Z,69.12
2022-12-29T10:20:02.015Z,67.57
2022-12-29T10:21:01.952Z,66.94
2022-12-29T10:22:01.983Z,66.27
2022-12-29T10:23:01.957Z,68.36
2022-12-29T10:24:01.946Z,61.71
2022-12-29T10:25:01.931Z,66.96
2022-12-29T10:26:01.955Z,68.73
2022-12-29T10:27:02.947Z,66.12
2022-12-29T10:28:01.908Z,67.57
2022-12-29T10:29:01.897Z,67.90
2022-12-29T10:30:01.925Z,68.10
2022-12-29T10:31:08.330Z,63.74
2022-12-29T10:32:03.964Z,64.57
2022-12-29T10:33:01.895Z,68.57
2022-12-29T10:34:01.859Z,66.42
2022-12-29T10:35:01.868Z,69.33
2022-12-29T10:36:01.833Z,68.65
2022-12-29T10:37:01.877Z,68.45
2022-12-29T10:38:01.872Z,66.80
2022-12-29T10:39:01.818Z,67.82
2022-12-29T10:40:01.813Z,65.70
2022-12-29T10:41:01.836Z,68.89
2022-12-29T10:42:01.821Z,62.70
2022-12-29T10:43:01.828Z,67.28
2022-12-29T10:44:01.806Z,67.13
2022-12-29T10:45:01.798Z,67.99
2022-12-29T10:46:01.809Z,67.83
2022-12-29T10:47:01.769Z,71.03
2022-12-29T10:48:01.793Z,69.09
2022-12-29T10:49:01.797Z,69.25
2022-12-29T10:50:01.773Z,68.54
2022-12-29T10:51:02.401Z,65.56
2022-12-29T10:52:02.782Z,66.34
2022-12-29T10:53:01.758Z,63.15
2022-12-29T10:54:01.743Z,67.33
2022-12-29T10:55:01.719Z,65.85
2022-12-29T10:56:01.742Z,66.51
2022-12-29T10:57:01.714Z,66.71
2022-12-29T10:58:01.722Z,66.61
2022-12-29T10:59:01.654Z,68.85
2022-12-29T11:00:01.677Z,64.41
2022-12-29T11:01:01.715Z,63.49
2022-12-29T11:02:01.884Z,70.78
2022-12-29T11:03:01.757Z,64.57
2022-12-29T11:04:01.629Z,63.96
2022-12-29T11:05:01.628Z,63.96
2022-12-29T11:06:01.609Z,68.01
2022-12-29T11:07:01.619Z,64.66
2022-12-29T11:08:01.610Z,66.49
2022-12-29T11:09:01.637Z,69.36
2022-12-29T11:10:01.591Z,69.74
2022-12-29T11:11:01.587Z,70.21
2022-12-29T11:12:01.565Z,63.49
2022-12-29T11:13:01.605Z,68.09
2022-12-29T11:14:01.546Z,67.19
2022-12-29T11:15:02.432Z,69.97
2022-12-29T11:16:01.656Z,66.65
2022-12-29T11:17:01.532Z,70.16
2022-12-29T11:18:01.601Z,67.33
2022-12-29T11:19:01.608Z,66.04
2022-12-29T11:20:01.497Z,71.10
2022-12-29T11:21:01.525Z,64.44
2022-12-29T11:22:02.456Z,59.80
2022-12-29T11:23:01.515Z,70.17
2022-12-29T11:24:01.520Z,67.69
2022-12-29T11:25:01.498Z,64.93
2022-12-29T11:26:01.471Z,66.88
2022-12-29T11:27:01.456Z,68.97
2022-12-29T11:28:02.492Z,62.16
2022-12-29T11:29:01.451Z,63.65
2022-12-29T11:30:01.526Z,69.03
2022-12-29T11:31:01.425Z,65.35
2022-12-29T11:32:01.454Z,66.81
2022-12-29T11:33:01.435Z,66.00
2022-12-29T11:34:01.413Z,67.56
2022-12-29T11:35:01.411Z,61.07
2022-12-29T11:36:01.454Z,61.64
2022-12-29T11:37:01.368Z,63.17
2022-12-29T11:38:01.406Z,65.57
2022-12-29T11:39:01.424Z,63.80
2022-12-29T11:40:01.367Z,66.33
2022-12-29T11:41:01.408Z,64.02
2022-12-29T11:42:01.363Z,65.26
2022-12-29T11:43:01.322Z,67.92
2022-12-29T11:44:01.308Z,68.79
2022-12-29T11:45:05.079Z,66.47
2022-12-29T11:46:02.351Z,65.06
2022-12-29T11:47:01.282Z,68.18
2022-12-29T11:48:01.310Z,64.79
2022-12-29T11:49:01.281Z,69.18
2022-12-29T11:50:01.312Z,61.42
2022-12-29T11:51:01.327Z,68.38
2022-12-29T11:52:01.258Z,66.87
2022-12-29T11:53:01.243Z,66.47
2022-12-29T11:54:01.285Z,65.65
2022-12-29T11:55:01.253Z,63.78
2022-12-29T11:56:01.336Z,65.45
2022-12-29T11:57:01.213Z,65.08
2022-12-29T11:58:01.243Z,66.88
2022-12-29T11:59:01.195Z,69.21
2022-12-29T12:00:01.215Z,64.34
2022-12-29T12:01:01.187Z,62.01
2022-12-29T12:02:01.283Z,70.08
2022-12-29T12:03:01.207Z,67.65
2022-12-29T12:04:01.194Z,67.73
2022-12-29T12:05:01.158Z,67.30
2022-12-29T12:06:01.133Z,66.52
2022-12-29T12:07:01.178Z,65.00
2022-12-29T12:08:01.168Z,69.79
2022-12-29T12:09:01.134Z,68.47
2022-12-29T12:10:07.094Z,64.28
2022-12-29T12:11:03.110Z,69.33
2022-12-29T12:12:01.077Z,65.64
2022-12-29T12:13:01.111Z,68.49
2022-12-29T12:14:01.128Z,62.74
2022-12-29T12:15:01.108Z,68.05
2022-12-29T12:16:01.095Z,68.78
2022-12-29T12:17:01.127Z,68.09
2022-12-29T12:18:01.091Z,67.18
2022-12-29T12:19:01.109Z,68.62
2022-12-29T12:20:01.050Z,65.04
2022-12-29T12:21:01.039Z,70.02
2022-12-29T12:22:01.028Z,67.12
2022-12-29T12:23:00.986Z,69.31
2022-12-29T12:24:01.022Z,68.10
2022-12-29T12:25:01.006Z,65.11
2022-12-29T12:26:00.980Z,64.66
2022-12-29T12:27:01.020Z,66.20
2022-12-29T12:28:01.000Z,67.94
2022-12-29T12:29:00.962Z,69.26
2022-12-29T12:30:01.034Z,66.43
2022-12-29T12:31:01.028Z,63.31
2022-12-29T12:32:00.923Z,66.30
2022-12-29T12:33:00.954Z,65.06
2022-12-29T12:34:00.958Z,65.94
2022-12-29T12:35:00.915Z,66.79
2022-12-29T12:36:00.941Z,64.50
2022-12-29T12:37:00.918Z,62.89
2022-12-29T12:38:00.914Z,66.33
2022-12-29T12:39:00.895Z,64.88
2022-12-29T12:40:00.868Z,67.89
2022-12-29T12:41:00.889Z,66.77
2022-12-29T12:42:00.839Z,70.41
2022-12-29T12:43:00.837Z,70.02
2022-12-29T12:44:00.857Z,68.92
2022-12-29T12:45:00.867Z,64.26
2022-12-29T12:46:00.910Z,65.63
2022-12-29T12:47:00.826Z,67.60
2022-12-29T12:48:00.816Z,67.48
2022-12-29T12:49:00.811Z,66.67
2022-12-29T12:50:00.864Z,71.51
2022-12-29T12:51:00.802Z,62.36
2022-12-29T12:52:05.192Z,62.84
2022-12-29T12:53:01.813Z,64.18
2022-12-29T12:54:00.787Z,71.49
2022-12-29T12:55:00.767Z,70.06
2022-12-29T12:56:00.803Z,64.25
2022-12-29T12:57:01.753Z,66.01
2022-12-29T12:58:00.756Z,64.16
2022-12-29T12:59:05.677Z,67.89
2022-12-29T13:00:02.782Z,68.97
2022-12-29T13:01:00.718Z,64.64
2022-12-29T13:02:00.841Z,66.50
2022-12-29T13:03:02.800Z,68.69
2022-12-29T13:04:00.722Z,65.75
2022-12-29T13:05:00.697Z,67.16
2022-12-29T13:06:00.656Z,65.51
2022-12-29T13:07:00.695Z,63.75
2022-12-29T13:08:00.666Z,65.77
2022-12-29T13:09:01.623Z,69.14
2022-12-29T13:10:00.631Z,68.33